^^
Station Historical Data
Daily Summary for May 24, 2017 Units:  English    Metric   Both
« Previous Day
Next Day »
Daily Weekly Monthly Yearly Custom
  High: Low: Average:
Temperature: 70.8 °F 55.3 °F 61.9 °F
Dew Point: 56.9 °F 49.4 °F 53.4 °F
Humidity: 94 % 54 % 75 %
Wind Speed: 4.0 mph 0.0 mph 0.3 mph
Wind Gust: 11.5 mph - -
Wind:- - ESE
Pressure: 29.79 in 29.72 in -
Precipitation: 0.08 in    
Historical Graphs
 
 
Tabular Data for May 24, 2017
Time Temperature Dew Point Pressure Wind Wind Speed Wind Gust Humidity Rainfall Rate (Hourly) solar Conditions
00:02 57.6 °F 53.1 °F 29.77 in Calm     85 % 0.00 in 0.0 W/m2 FEW
00:07 57.6 °F 53.1 °F 29.77 in Calm     85 % 0.00 in 0.0 W/m2 FEW
00:12 57.5 °F 53.0 °F 29.77 in Calm     85 % 0.00 in 0.0 W/m2 FEW
00:17 57.4 °F 52.9 °F 29.77 in Calm     85 % 0.00 in 0.0 W/m2 FEW
00:22 57.4 °F 52.9 °F 29.77 in Calm     85 % 0.00 in 0.0 W/m2 CLR
00:27 57.4 °F 52.9 °F 29.77 in Calm     85 % 0.00 in 0.0 W/m2 CLR
00:32 57.4 °F 52.9 °F 29.77 in Calm     85 % 0.00 in 0.0 W/m2 CLR
00:38 57.4 °F 52.9 °F 29.77 in Calm     85 % 0.00 in 0.0 W/m2 CLR
00:43 57.4 °F 52.9 °F 29.77 in Calm     85 % 0.00 in 0.0 W/m2 CLR
00:48 57.4 °F 52.9 °F 29.77 in Calm     85 % 0.00 in 0.0 W/m2 CLR
00:53 57.4 °F 52.9 °F 29.77 in Calm     85 % 0.00 in 0.0 W/m2 CLR
00:58 57.4 °F 52.9 °F 29.76 in Calm     85 % 0.00 in 0.0 W/m2 CLR
01:03 57.4 °F 52.9 °F 29.76 in Calm     85 % 0.00 in 0.0 W/m2 SCT
01:08 57.5 °F 53.0 °F 29.76 in Calm     85 % 0.00 in 0.0 W/m2 SCT
01:13 57.5 °F 53.0 °F 29.76 in Calm     85 % 0.00 in 0.0 W/m2 SCT
01:18 57.3 °F 52.8 °F 29.76 in Calm     85 % 0.00 in 0.0 W/m2 SCT
01:23 57.3 °F 53.1 °F 29.76 in Calm     86 % 0.00 in 0.0 W/m2 SCT
01:28 57.3 °F 53.1 °F 29.76 in Calm     86 % 0.00 in 0.0 W/m2 SCT
01:29 57.3 °F 53.1 °F 29.76 in Calm     86 % 0.00 in 0.0 W/m2 SCT
01:34 57.3 °F 53.1 °F 29.76 in Calm     86 % 0.00 in 0.0 W/m2 SCT
01:39 57.2 °F 53.0 °F 29.76 in Calm     86 % 0.00 in 0.0 W/m2 SCT
01:44 57.1 °F 53.0 °F 29.76 in Calm     86 % 0.00 in 0.0 W/m2 SCT
01:49 57.1 °F 53.0 °F 29.76 in Calm     86 % 0.00 in 0.0 W/m2 SCT
01:54 57.0 °F 52.9 °F 29.76 in Calm     86 % 0.00 in 0.0 W/m2 SCT
01:59 57.1 °F 53.0 °F 29.75 in Calm     86 % 0.00 in 0.0 W/m2 SCT
02:04 57.0 °F 52.9 °F 29.75 in Calm     86 % 0.00 in 0.0 W/m2 BKN
02:09 57.1 °F 53.3 °F 29.75 in Calm     87 % 0.00 in 0.0 W/m2 BKN
02:14 57.3 °F 53.5 °F 29.75 in Calm     87 % 0.00 in 0.0 W/m2 BKN
02:19 57.0 °F 53.2 °F 29.75 in Calm     87 % 0.00 in 0.0 W/m2 BKN
02:24 56.7 °F 53.2 °F 29.75 in Calm     88 % 0.00 in 0.0 W/m2 BKN
02:29 56.7 °F 53.2 °F 29.74 in Calm     88 % 0.00 in 0.0 W/m2 BKN
02:34 56.6 °F 53.1 °F 29.74 in Calm     88 % 0.00 in 0.0 W/m2 BKN
02:39 56.5 °F 53.3 °F 29.74 in Calm     89 % 0.00 in 0.0 W/m2 BKN
02:43 56.5 °F 53.3 °F 29.74 in Calm     89 % 0.00 in 0.0 W/m2 BKN
02:49 56.4 °F 53.2 °F 29.74 in Calm     89 % 0.00 in 0.0 W/m2 BKN
02:54 56.2 °F 53.0 °F 29.74 in Calm     89 % 0.01 in 0.0 W/m2 RA
02:59 56.3 °F 53.1 °F 29.74 in Calm     89 % 0.01 in 0.0 W/m2 BKN
03:04 56.2 °F 53.3 °F 29.74 in Calm     90 % 0.02 in 0.0 W/m2 RA
03:09 56.2 °F 53.3 °F 29.73 in Calm     90 % 0.02 in 0.0 W/m2 RA
03:14 56.1 °F 53.2 °F 29.73 in Calm     90 % 0.02 in 0.0 W/m2 OVC
03:19 56.1 °F 53.5 °F 29.74 in Calm     91 % 0.02 in 0.0 W/m2 OVC
03:24 56.0 °F 53.4 °F 29.74 in Calm     91 % 0.02 in 0.0 W/m2 OVC
03:29 56.2 °F 53.6 °F 29.74 in Calm     91 % 0.02 in 0.0 W/m2 OVC
03:30 56.2 °F 53.6 °F 29.74 in Calm     91 % 0.02 in 0.0 W/m2 OVC
03:35 56.2 °F 53.6 °F 29.74 in Calm     91 % 0.02 in 0.0 W/m2 OVC
03:40 56.1 °F 53.5 °F 29.73 in Calm     91 % 0.02 in 0.0 W/m2 OVC
03:45 56.0 °F 53.4 °F 29.74 in Calm     91 % 0.02 in 0.0 W/m2 OVC
03:50 55.9 °F 53.6 °F 29.74 in Calm     92 % 0.01 in 0.0 W/m2 OVC
03:55 56.0 °F 53.7 °F 29.73 in Calm     92 % 0.01 in 0.0 W/m2 OVC
04:00 55.8 °F 53.5 °F 29.73 in Calm     92 % 0.01 in 0.0 W/m2 OVC
04:03 55.7 °F 53.4 °F 29.73 in Calm     92 % 0.01 in 0.0 W/m2 OVC
04:08 55.8 °F 53.5 °F 29.73 in Calm     92 % 0.01 in 0.0 W/m2 RA
04:13 55.9 °F 53.6 °F 29.73 in Calm     92 % 0.01 in 0.0 W/m2 RA
04:18 55.9 °F 53.6 °F 29.73 in Calm     92 % 0.01 in 0.0 W/m2 OVC
04:23 55.9 °F 53.6 °F 29.73 in Calm     92 % 0.01 in 0.0 W/m2 OVC
04:28 55.9 °F 53.9 °F 29.73 in Calm     93 % 0.01 in 0.0 W/m2 OVC
04:33 56.1 °F 54.1 °F 29.73 in Calm     93 % 0.02 in 0.0 W/m2 RA
04:38 56.1 °F 54.1 °F 29.73 in Calm     93 % 0.03 in 0.0 W/m2 RA
04:43 56.0 °F 54.0 °F 29.73 in Calm     93 % 0.03 in 0.0 W/m2 RA
04:48 55.8 °F 53.8 °F 29.73 in Calm     93 % 0.03 in 0.0 W/m2 OVC
04:53 55.8 °F 53.8 °F 29.73 in Calm     93 % 0.03 in 0.0 W/m2 OVC
04:58 55.7 °F 53.7 °F 29.73 in Calm     93 % 0.04 in 0.0 W/m2 RA
05:03 55.7 °F 53.7 °F 29.73 in Calm     93 % 0.04 in 0.0 W/m2 -RA
05:08 55.6 °F 53.6 °F 29.73 in Calm     93 % 0.03 in 0.0 W/m2 -RA
05:13 55.6 °F 53.6 °F 29.73 in Calm     93 % 0.03 in 0.0 W/m2 -RA
05:18 55.6 °F 53.6 °F 29.73 in Calm     93 % 0.04 in 0.0 W/m2 -RA
05:23 55.6 °F 53.6 °F 29.73 in Calm     93 % 0.04 in 0.0 W/m2 -RA
05:29 55.7 °F 53.7 °F 29.73 in Calm     93 % 0.05 in 0.0 W/m2 -RA
05:34 55.6 °F 53.6 °F 29.73 in Calm     93 % 0.04 in 0.0 W/m2 -RA
05:38 55.5 °F 53.8 °F 29.73 in Calm     94 % 0.03 in 0.0 W/m2 -RA
05:44 55.5 °F 53.5 °F 29.73 in Calm     93 % 0.03 in 0.0 W/m2 -RA
05:49 55.5 °F 53.5 °F 29.73 in Calm     93 % 0.03 in 0.0 W/m2 -RA
05:54 55.5 °F 53.8 °F 29.72 in Calm     94 % 0.03 in 0.0 W/m2 -RA
05:59 55.5 °F 53.8 °F 29.72 in Calm     94 % 0.02 in 5.0 W/m2 -RA
06:04 55.3 °F 53.6 °F 29.72 in Calm     94 % 0.02 in 5.0 W/m2 -RA
06:09 55.3 °F 53.6 °F 29.72 in Calm     94 % 0.02 in 7.0 W/m2 -RA
06:14 55.4 °F 53.7 °F 29.73 in Calm     94 % 0.02 in 14.0 W/m2 -RA
06:19 55.5 °F 53.8 °F 29.72 in Calm     94 % 0.01 in 18.0 W/m2 -RA
06:24 55.6 °F 53.9 °F 29.72 in Calm     94 % 0.01 in 23.0 W/m2 -RA
06:29 55.6 °F 53.9 °F 29.73 in Calm     94 % 0.00 in 26.0 W/m2 -RA
06:34 55.7 °F 54.0 °F 29.73 in Calm     94 % 0.00 in 33.0 W/m2 -RA
06:39 55.6 °F 53.9 °F 29.73 in Calm     94 % 0.00 in 33.0 W/m2 -RA
06:44 55.6 °F 53.9 °F 29.73 in Calm     94 % 0.00 in 32.0 W/m2 -RA
06:49 55.8 °F 54.1 °F 29.73 in Calm     94 % 0.00 in 33.0 W/m2 -RA
06:54 55.7 °F 54.0 °F 29.73 in Calm     94 % 0.00 in 39.0 W/m2 -RA
06:59 55.8 °F 54.1 °F 29.73 in Calm     94 % 0.00 in 46.0 W/m2 -RA
07:04 55.7 °F 54.0 °F 29.73 in Calm   1.2 mph 94 % 0.00 in 51.0 W/m2 OVC
07:09 55.7 °F 54.0 °F 29.73 in Calm   1.2 mph 94 % 0.00 in 54.0 W/m2 OVC
07:14 55.8 °F 54.1 °F 29.73 in Calm   1.2 mph 94 % 0.00 in 44.0 W/m2 OVC
07:19 55.7 °F 54.0 °F 29.73 in Calm   1.2 mph 94 % 0.00 in 58.0 W/m2 OVC
07:24 55.8 °F 54.1 °F 29.73 in Calm   1.2 mph 94 % 0.00 in 58.0 W/m2 OVC
07:29 55.9 °F 54.2 °F 29.73 in Calm     94 % 0.00 in 70.0 W/m2 OVC
07:34 56.0 °F 54.3 °F 29.73 in Calm     94 % 0.00 in 65.0 W/m2 OVC
07:39 55.9 °F 54.2 °F 29.73 in Calm     94 % 0.00 in 67.0 W/m2 OVC
07:44 55.8 °F 54.1 °F 29.74 in Calm   1.2 mph 94 % 0.00 in 62.0 W/m2 OVC
07:49 55.8 °F 54.1 °F 29.74 in Calm   1.2 mph 94 % 0.00 in 74.0 W/m2 OVC
07:54 56.0 °F 54.0 °F 29.74 in Calm   1.2 mph 93 % 0.00 in 83.0 W/m2 OVC
07:59 56.4 °F 54.7 °F 29.74 in WSW 0.2 mph 1.2 mph 94 % 0.00 in 86.0 W/m2 OVC
08:04 56.5 °F 54.5 °F 29.75 in Calm   1.2 mph 93 % 0.00 in 90.0 W/m2 OVC
08:10 56.6 °F 54.6 °F 29.75 in Calm   1.2 mph 93 % 0.00 in 100.0 W/m2 OVC
08:15 56.7 °F 54.7 °F 29.75 in Calm     93 % 0.00 in 109.0 W/m2 OVC
08:20 56.8 °F 54.8 °F 29.75 in Calm   1.2 mph 93 % 0.00 in 107.0 W/m2 OVC
08:25 57.0 °F 55.0 °F 29.75 in Calm     93 % 0.00 in 118.0 W/m2 OVC
08:30 56.9 °F 54.6 °F 29.76 in Calm     92 % 0.00 in 123.0 W/m2 OVC
08:35 56.9 °F 54.6 °F 29.76 in Calm   1.2 mph 92 % 0.00 in 134.0 W/m2 OVC
08:40 57.1 °F 54.8 °F 29.76 in Calm   1.2 mph 92 % 0.00 in 146.0 W/m2 OVC
08:45 57.3 °F 55.0 °F 29.76 in Calm   1.2 mph 92 % 0.00 in 130.0 W/m2 OVC
08:50 57.3 °F 55.0 °F 29.77 in Calm   1.2 mph 92 % 0.00 in 134.0 W/m2 OVC
08:55 57.3 °F 55.0 °F 29.77 in Calm   1.2 mph 92 % 0.00 in 139.0 W/m2 OVC
09:00 57.7 °F 55.1 °F 29.78 in Calm     91 % 0.00 in 153.0 W/m2 OVC
09:05 58.0 °F 55.4 °F 29.78 in Calm     91 % 0.00 in 162.0 W/m2 OVC
09:10 57.9 °F 55.3 °F 29.78 in Calm   1.2 mph 91 % 0.00 in 165.0 W/m2 OVC
09:15 58.3 °F 55.7 °F 29.78 in Calm   1.2 mph 91 % 0.00 in 192.0 W/m2 OVC
09:20 58.2 °F 55.3 °F 29.77 in Calm   1.2 mph 90 % 0.00 in 278.0 W/m2 OVC
09:25 59.2 °F 56.3 °F 29.77 in WNW 0.7 mph 1.2 mph 90 % 0.00 in 628.0 W/m2 OVC
09:30 59.3 °F 55.7 °F 29.77 in Calm   3.5 mph 88 % 0.00 in 262.0 W/m2 OVC
09:35 59.5 °F 55.9 °F 29.76 in NW 1.1 mph 3.5 mph 88 % 0.00 in 652.0 W/m2 OVC
09:40 60.0 °F 56.1 °F 29.76 in NW 1.5 mph 3.5 mph 87 % 0.00 in 369.0 W/m2 OVC
09:45 59.7 °F 55.8 °F 29.76 in NNW 0.4 mph 3.5 mph 87 % 0.00 in 343.0 W/m2 OVC
09:50 59.9 °F 56.3 °F 29.75 in NNW 1.2 mph 3.5 mph 88 % 0.00 in 475.0 W/m2 OVC
09:55 60.3 °F 56.4 °F 29.76 in Calm   3.5 mph 87 % 0.00 in 527.0 W/m2 OVC
10:00 60.1 °F 55.9 °F 29.76 in Calm   3.5 mph 86 % 0.00 in 418.0 W/m2 OVC
10:05 60.6 °F 56.4 °F 29.76 in Calm   3.5 mph 86 % 0.00 in 457.0 W/m2 OVC
10:09 60.6 °F 56.4 °F 29.75 in NNE 1.7 mph 4.6 mph 86 % 0.00 in 373.0 W/m2 OVC
10:14 61.0 °F 56.5 °F 29.75 in NNE 1.3 mph 4.6 mph 85 % 0.00 in 339.0 W/m2 OVC
10:19 61.2 °F 56.7 °F 29.75 in NNE 0.6 mph 4.6 mph 85 % 0.00 in 687.0 W/m2 OVC
10:24 61.8 °F 56.9 °F 29.75 in NNE 3.0 mph 5.8 mph 84 % 0.00 in 621.0 W/m2 OVC
10:29 61.7 °F 56.1 °F 29.75 in Calm   5.8 mph 82 % 0.00 in 833.0 W/m2 OVC
10:34 62.5 °F 56.9 °F 29.75 in NNE 1.6 mph 4.6 mph 82 % 0.00 in 860.0 W/m2 OVC
10:39 62.5 °F 55.9 °F 29.75 in NNE 1.0 mph 5.8 mph 79 % 0.00 in 566.0 W/m2 OVC
10:44 62.1 °F 55.2 °F 29.75 in North 1.0 mph 5.8 mph 78 % 0.00 in 619.0 W/m2 OVC
10:49 62.3 °F 54.6 °F 29.75 in NNE 0.1 mph 3.5 mph 76 % 0.00 in 775.0 W/m2 OVC
10:54 63.2 °F 56.2 °F 29.74 in NNE 1.7 mph 4.6 mph 78 % 0.00 in 779.0 W/m2 OVC
10:59 63.6 °F 55.2 °F 29.75 in ENE 0.2 mph 6.9 mph 74 % 0.00 in 768.0 W/m2 OVC
11:04 64.1 °F 56.0 °F 29.75 in NE 2.3 mph 6.9 mph 75 % 0.00 in 911.0 W/m2 BKN
11:09 64.1 °F 54.1 °F 29.75 in Calm   5.8 mph 70 % 0.00 in 940.0 W/m2 BKN
11:14 64.6 °F 54.2 °F 29.75 in NNE 0.7 mph 9.2 mph 69 % 0.00 in 977.0 W/m2 BKN
11:19 64.0 °F 54.0 °F 29.76 in East 1.1 mph 9.2 mph 70 % 0.00 in 733.0 W/m2 BKN
11:24 64.1 °F 54.1 °F 29.76 in Calm   6.9 mph 70 % 0.00 in 944.0 W/m2 BKN
11:25 64.1 °F 54.1 °F 29.76 in South 0.1 mph 6.9 mph 70 % 0.00 in 944.0 W/m2 BKN
11:30 64.8 °F 54.4 °F 29.76 in Calm   4.6 mph 69 % 0.00 in 974.0 W/m2 BKN
11:35 64.6 °F 54.2 °F 29.76 in Calm   4.0 mph 69 % 0.00 in 960.0 W/m2 BKN
11:40 65.1 °F 53.9 °F 29.76 in Calm   3.5 mph 67 % 0.00 in 986.0 W/m2 BKN
11:45 65.9 °F 53.4 °F 29.76 in South 1.7 mph 4.6 mph 64 % 0.00 in 995.0 W/m2 BKN
11:50 66.6 °F 54.9 °F 29.76 in SE 0.7 mph 4.6 mph 66 % 0.00 in 981.0 W/m2 BKN
11:55 65.9 °F 53.8 °F 29.76 in Calm   3.5 mph 65 % 0.00 in 1060.0 W/m2 BKN
12:00 65.4 °F 52.9 °F 29.75 in Calm   3.5 mph 64 % 0.00 in 290.0 W/m2 BKN
12:05 66.2 °F 54.1 °F 29.75 in ESE 0.9 mph 5.8 mph 65 % 0.00 in 1106.0 W/m2 CLR
12:10 66.1 °F 54.0 °F 29.75 in NNE 1.7 mph 5.8 mph 65 % 0.00 in 1121.0 W/m2 CLR
12:11 66.2 °F 54.1 °F 29.75 in NNE 1.1 mph 5.8 mph 65 % 0.00 in 1104.0 W/m2 CLR
12:16 66.9 °F 53.9 °F 29.75 in SSW 0.6 mph 5.8 mph 63 % 0.00 in 1102.0 W/m2 CLR
12:21 67.2 °F 53.7 °F 29.75 in ESE 0.2 mph 5.8 mph 62 % 0.00 in 1058.0 W/m2 CLR
12:26 67.8 °F 55.2 °F 29.75 in NNE 1.4 mph 5.8 mph 64 % 0.00 in 1032.0 W/m2 CLR
12:31 68.2 °F 55.1 °F 29.74 in NNE 1.5 mph 3.5 mph 63 % 0.00 in 1158.0 W/m2 CLR
12:36 67.7 °F 54.2 °F 29.74 in ESE 0.3 mph 6.9 mph 62 % 0.00 in 1009.0 W/m2 CLR
12:41 68.5 °F 54.5 °F 29.74 in ESE 0.1 mph 6.9 mph 61 % 0.00 in 1081.0 W/m2 CLR
12:46 68.4 °F 54.4 °F 29.74 in NNE 0.5 mph 3.5 mph 61 % 0.00 in 234.0 W/m2 CLR
12:51 68.7 °F 54.7 °F 29.74 in Calm   5.8 mph 61 % 0.00 in 1060.0 W/m2 CLR
12:56 68.7 °F 53.8 °F 29.74 in East 0.1 mph 5.8 mph 59 % 0.00 in 1037.0 W/m2 CLR
13:01 68.6 °F 53.2 °F 29.74 in NNE 1.2 mph 5.8 mph 58 % 0.00 in 1034.0 W/m2 FEW
13:06 68.0 °F 53.1 °F 29.74 in North 0.1 mph 8.1 mph 59 % 0.00 in 185.0 W/m2 FEW
13:11 69.2 °F 53.8 °F 29.74 in SE 0.2 mph 8.1 mph 58 % 0.00 in 1048.0 W/m2 FEW
13:16 69.6 °F 53.2 °F 29.74 in East 0.8 mph 3.5 mph 56 % 0.00 in 1058.0 W/m2 FEW
13:21 68.4 °F 53.5 °F 29.74 in ESE 0.5 mph 3.5 mph 59 % 0.00 in 209.0 W/m2 FEW
13:26 68.9 °F 53.5 °F 29.74 in Calm   3.5 mph 58 % 0.00 in 192.0 W/m2 FEW
13:31 68.3 °F 52.0 °F 29.74 in Calm   5.8 mph 56 % 0.00 in 234.0 W/m2 FEW
13:37 69.1 °F 53.2 °F 29.74 in Calm   5.8 mph 57 % 0.00 in 1028.0 W/m2 FEW
13:42 68.8 °F 53.4 °F 29.74 in South 0.2 mph 4.6 mph 58 % 0.00 in 346.0 W/m2 FEW
13:47 69.3 °F 53.4 °F 29.74 in SE 0.6 mph 3.5 mph 57 % 0.00 in 403.0 W/m2 FEW
13:52 69.2 °F 53.3 °F 29.74 in SSE 0.2 mph 5.8 mph 57 % 0.00 in 425.0 W/m2 FEW
13:57 69.8 °F 52.4 °F 29.73 in SSE 4.0 mph 6.9 mph 54 % 0.00 in 969.0 W/m2 FEW
14:02 70.0 °F 52.6 °F 29.73 in ESE 1.6 mph 6.9 mph 54 % 0.00 in 359.0 W/m2 FEW
14:07 69.5 °F 52.6 °F 29.73 in NNE 0.6 mph 6.9 mph 55 % 0.00 in 519.0 W/m2 FEW
14:12 69.3 °F 52.9 °F 29.73 in Calm   6.9 mph 56 % 0.00 in 267.0 W/m2 FEW
14:17 69.0 °F 53.1 °F 29.72 in Calm   6.9 mph 57 % 0.00 in 304.0 W/m2 FEW
14:22 69.1 °F 52.7 °F 29.73 in East 0.3 mph 3.5 mph 56 % 0.00 in 253.0 W/m2 FEW
14:27 68.7 °F 53.3 °F 29.74 in ESE 0.8 mph 9.2 mph 58 % 0.00 in 367.0 W/m2 FEW
14:32 68.8 °F 53.4 °F 29.74 in Calm   9.2 mph 58 % 0.00 in 260.0 W/m2 FEW
14:37 68.6 °F 52.8 °F 29.74 in ESE 0.5 mph 5.8 mph 57 % 0.00 in 206.0 W/m2 FEW
14:42 68.4 °F 53.0 °F 29.75 in South 0.3 mph 5.8 mph 58 % 0.00 in 185.0 W/m2 FEW
14:43 68.4 °F 53.0 °F 29.75 in SSE 1.0 mph 5.8 mph 58 % 0.00 in 193.0 W/m2 FEW
14:48 68.4 °F 53.0 °F 29.75 in Calm   4.6 mph 58 % 0.00 in 306.0 W/m2 FEW
14:53 69.2 °F 53.3 °F 29.75 in East 0.4 mph 4.6 mph 57 % 0.00 in 621.0 W/m2 FEW
14:58 69.7 °F 53.8 °F 29.75 in NE 0.6 mph 8.1 mph 57 % 0.00 in 742.0 W/m2 FEW
15:03 70.0 °F 53.6 °F 29.75 in ESE 1.0 mph 8.1 mph 56 % 0.00 in 744.0 W/m2 BKN
15:08 69.9 °F 53.5 °F 29.74 in SSW 0.7 mph 8.1 mph 56 % 0.00 in 835.0 W/m2 BKN
15:13 69.8 °F 52.9 °F 29.74 in SE 1.9 mph 11.5 mph 55 % 0.00 in 886.0 W/m2 BKN
15:18 69.7 °F 52.8 °F 29.74 in SSE 3.7 mph 11.5 mph 55 % 0.00 in 308.0 W/m2 BKN
15:23 70.0 °F 54.1 °F 29.74 in South 0.6 mph 8.1 mph 57 % 0.00 in 865.0 W/m2 BKN
15:28 70.6 °F 54.6 °F 29.74 in Calm   8.1 mph 57 % 0.00 in 840.0 W/m2 BKN
15:33 70.5 °F 54.5 °F 29.75 in NE 0.5 mph 3.5 mph 57 % 0.00 in 311.0 W/m2 BKN
15:38 69.5 °F 53.1 °F 29.74 in ESE 1.0 mph 3.5 mph 56 % 0.00 in 262.0 W/m2 BKN
15:43 69.4 °F 54.4 °F 29.74 in Calm   6.9 mph 59 % 0.00 in 497.0 W/m2 BKN
15:48 70.0 °F 54.5 °F 29.74 in SE 0.6 mph 6.9 mph 58 % 0.00 in 650.0 W/m2 BKN
15:53 70.0 °F 54.1 °F 29.74 in SE 1.5 mph 5.8 mph 57 % 0.00 in 891.0 W/m2 BKN
15:58 70.6 °F 54.1 °F 29.74 in SSE 1.3 mph 8.1 mph 56 % 0.00 in 849.0 W/m2 BKN
16:03 70.8 °F 54.3 °F 29.74 in SE 0.8 mph 8.1 mph 56 % 0.00 in 925.0 W/m2 BKN
16:08 70.0 °F 54.1 °F 29.74 in SSE 0.8 mph 11.5 mph 57 % 0.00 in 366.0 W/m2 BKN
16:13 69.0 °F 53.6 °F 29.74 in SE 0.4 mph 11.5 mph 58 % 0.00 in 322.0 W/m2 BKN
16:18 68.8 °F 53.9 °F 29.75 in South 0.1 mph 4.6 mph 59 % 0.00 in 163.0 W/m2 BKN
16:23 69.0 °F 54.1 °F 29.76 in Calm   5.8 mph 59 % 0.00 in 248.0 W/m2 BKN
16:28 68.6 °F 53.7 °F 29.75 in ESE 0.2 mph 5.8 mph 59 % 0.00 in 188.0 W/m2 BKN
16:33 68.6 °F 53.7 °F 29.75 in South 0.5 mph 5.8 mph 59 % 0.00 in 343.0 W/m2 BKN
16:38 68.8 °F 54.3 °F 29.74 in Calm   5.8 mph 60 % 0.00 in 230.0 W/m2 BKN
16:44 69.0 °F 54.1 °F 29.74 in Calm   4.6 mph 59 % 0.00 in 186.0 W/m2 BKN
16:49 68.8 °F 53.9 °F 29.74 in Calm   4.6 mph 59 % 0.00 in 239.0 W/m2 BKN
16:54 68.8 °F 54.3 °F 29.74 in SSW 0.1 mph 4.6 mph 60 % 0.00 in 197.0 W/m2 BKN
16:59 68.6 °F 53.7 °F 29.75 in NE 0.2 mph 6.9 mph 59 % 0.00 in 186.0 W/m2 BKN
17:04 68.5 °F 54.1 °F 29.75 in Calm   6.9 mph 60 % 0.00 in 594.0 W/m2 BKN
17:09 68.7 °F 54.3 °F 29.75 in Calm   6.9 mph 60 % 0.00 in 304.0 W/m2 BKN
17:14 68.5 °F 53.6 °F 29.75 in ESE 0.8 mph 6.9 mph 59 % 0.00 in 95.0 W/m2 BKN
17:19 68.2 °F 53.8 °F 29.75 in SSE 0.3 mph 6.9 mph 60 % 0.00 in 44.0 W/m2 BKN
17:24 67.9 °F 53.5 °F 29.76 in ESE 0.1 mph 4.6 mph 60 % 0.00 in 39.0 W/m2 BKN
17:29 67.6 °F 53.2 °F 29.75 in Calm   3.5 mph 60 % 0.00 in 56.0 W/m2 BKN
17:34 67.6 °F 53.7 °F 29.74 in South 0.1 mph 3.5 mph 61 % 0.00 in 65.0 W/m2 BKN
17:39 67.5 °F 53.6 °F 29.74 in ESE 0.7 mph 3.5 mph 61 % 0.00 in 114.0 W/m2 BKN
17:44 67.5 °F 53.6 °F 29.74 in SE 0.3 mph 3.5 mph 61 % 0.00 in 160.0 W/m2 BKN
17:49 67.4 °F 53.5 °F 29.74 in ESE 0.5 mph 3.5 mph 61 % 0.00 in 98.0 W/m2 BKN
17:54 67.2 °F 53.7 °F 29.73 in East 0.2 mph 3.5 mph 62 % 0.00 in 102.0 W/m2 BKN
17:59 67.3 °F 54.3 °F 29.74 in Calm   3.5 mph 63 % 0.00 in 149.0 W/m2 BKN
18:04 67.5 °F 54.0 °F 29.74 in Calm   3.5 mph 62 % 0.00 in 281.0 W/m2 OVC
18:09 67.7 °F 53.8 °F 29.74 in ESE 0.2 mph 4.6 mph 61 % 0.00 in 227.0 W/m2 OVC
18:10 67.7 °F 54.2 °F 29.74 in Calm   4.6 mph 62 % 0.00 in 213.0 W/m2 OVC
18:15 67.6 °F 53.7 °F 29.74 in Calm   4.6 mph 61 % 0.00 in 179.0 W/m2 OVC
18:20 67.5 °F 54.0 °F 29.75 in Calm   3.5 mph 62 % 0.00 in 163.0 W/m2 OVC
18:25 67.4 °F 53.9 °F 29.75 in ESE 0.2 mph 4.6 mph 62 % 0.00 in 132.0 W/m2 OVC
18:30 67.2 °F 53.7 °F 29.74 in South 0.2 mph 4.6 mph 62 % 0.00 in 120.0 W/m2 OVC
18:35 67.2 °F 53.7 °F 29.75 in SSW 0.4 mph 4.6 mph 62 % 0.00 in 113.0 W/m2 OVC
18:40 67.1 °F 53.6 °F 29.74 in SE 0.1 mph 4.6 mph 62 % 0.00 in 113.0 W/m2 OVC
18:45 67.0 °F 54.0 °F 29.74 in Calm   4.6 mph 63 % 0.00 in 102.0 W/m2 OVC
18:50 66.7 °F 53.7 °F 29.74 in Calm   2.3 mph 63 % 0.00 in 91.0 W/m2 OVC
18:55 66.6 °F 54.0 °F 29.75 in South 0.1 mph 2.3 mph 64 % 0.00 in 83.0 W/m2 OVC
19:00 66.5 °F 53.9 °F 29.74 in Calm   5.8 mph 64 % 0.00 in 67.0 W/m2 OVC
19:05 66.5 °F 53.5 °F 29.75 in Calm   5.8 mph 63 % 0.00 in 65.0 W/m2 SCT
19:10 66.3 °F 53.3 °F 29.74 in SE 0.1 mph 3.5 mph 63 % 0.00 in 62.0 W/m2 SCT
19:15 66.2 °F 53.7 °F 29.75 in Calm   3.5 mph 64 % 0.00 in 53.0 W/m2 SCT
19:21 66.0 °F 53.0 °F 29.75 in Calm   3.5 mph 63 % 0.00 in 49.0 W/m2 SCT
19:26 65.8 °F 53.3 °F 29.75 in Calm   3.5 mph 64 % 0.00 in 42.0 W/m2 SCT
19:31 65.7 °F 53.2 °F 29.75 in Calm   3.5 mph 64 % 0.00 in 40.0 W/m2 SCT
19:36 65.7 °F 52.8 °F 29.75 in Calm   3.5 mph 63 % 0.00 in 35.0 W/m2 SCT
19:41 65.4 °F 52.9 °F 29.75 in SW 0.1 mph 3.5 mph 64 % 0.00 in 28.0 W/m2 SCT
19:46 65.2 °F 52.7 °F 29.76 in Calm   3.5 mph 64 % 0.00 in 25.0 W/m2 SCT
19:51 64.9 °F 52.4 °F 29.75 in East 0.1 mph 3.5 mph 64 % 0.00 in 18.0 W/m2 SCT
19:56 64.8 °F 52.8 °F 29.75 in Calm   1.2 mph 65 % 0.00 in 14.0 W/m2 SCT
20:01 64.6 °F 52.6 °F 29.76 in Calm   8.1 mph 65 % 0.00 in 9.0 W/m2 CLR
20:06 64.5 °F 52.5 °F 29.77 in Calm   8.1 mph 65 % 0.00 in 7.0 W/m2 CLR
20:11 64.4 °F 52.8 °F 29.76 in Calm   2.3 mph 66 % 0.00 in 0.0 W/m2 CLR
20:16 64.2 °F 52.6 °F 29.77 in Calm   1.2 mph 66 % 0.00 in 0.0 W/m2 CLR
20:21 64.1 °F 52.5 °F 29.77 in Calm   1.2 mph 66 % 0.00 in 0.0 W/m2 CLR
20:26 63.9 °F 52.7 °F 29.77 in Calm     67 % 0.00 in 0.0 W/m2 CLR
20:31 63.8 °F 52.6 °F 29.76 in Calm   2.3 mph 67 % 0.00 in 0.0 W/m2 CLR
20:36 63.6 °F 52.4 °F 29.77 in ENE 1.5 mph 4.6 mph 67 % 0.00 in 0.0 W/m2 CLR
20:41 63.4 °F 51.8 °F 29.76 in Calm   6.9 mph 66 % 0.00 in 0.0 W/m2 CLR
20:46 63.2 °F 51.2 °F 29.76 in Calm   6.9 mph 65 % 0.00 in 0.0 W/m2 CLR
20:51 63.1 °F 50.7 °F 29.77 in Calm   5.8 mph 64 % 0.00 in 0.0 W/m2 CLR
20:53 63.0 °F 50.6 °F 29.77 in SE 0.2 mph 5.8 mph 64 % 0.00 in 0.0 W/m2 CLR
20:58 63.0 °F 50.6 °F 29.77 in Calm   5.8 mph 64 % 0.00 in 0.0 W/m2 CLR
21:03 62.8 °F 50.9 °F 29.77 in Calm   1.2 mph 65 % 0.00 in 0.0 W/m2 CLR
21:08 62.7 °F 51.2 °F 29.78 in South 0.6 mph 3.5 mph 66 % 0.00 in 0.0 W/m2 CLR
21:13 62.5 °F 51.0 °F 29.77 in Calm   3.5 mph 66 % 0.00 in 0.0 W/m2 CLR
21:18 62.3 °F 51.2 °F 29.77 in SSE 1.9 mph 6.9 mph 67 % 0.00 in 0.0 W/m2 CLR
21:23 62.1 °F 51.0 °F 29.77 in SE 0.2 mph 6.9 mph 67 % 0.00 in 0.0 W/m2 CLR
21:28 62.0 °F 50.9 °F 29.77 in Calm   6.9 mph 67 % 0.00 in 0.0 W/m2 CLR
21:33 61.9 °F 50.8 °F 29.77 in SSE 0.2 mph 4.6 mph 67 % 0.00 in 0.0 W/m2 CLR
21:38 61.8 °F 50.7 °F 29.78 in Calm   3.5 mph 67 % 0.00 in 0.0 W/m2 CLR
21:43 61.6 °F 50.5 °F 29.78 in WNW 0.1 mph 3.5 mph 67 % 0.00 in 0.0 W/m2 CLR
21:48 61.6 °F 50.5 °F 29.78 in SE 0.1 mph 5.8 mph 67 % 0.00 in 0.0 W/m2 CLR
21:53 61.5 °F 50.0 °F 29.78 in ENE 0.3 mph 5.8 mph 66 % 0.00 in 0.0 W/m2 CLR
21:58 61.3 °F 50.2 °F 29.78 in Calm   3.5 mph 67 % 0.00 in 0.0 W/m2 CLR
22:03 61.2 °F 50.2 °F 29.78 in Calm   3.5 mph 67 % 0.00 in 0.0 W/m2 CLR
22:06 61.2 °F 50.2 °F 29.78 in Calm   1.2 mph 67 % 0.00 in 0.0 W/m2 CLR
22:11 61.1 °F 50.1 °F 29.79 in Calm   1.2 mph 67 % 0.00 in 0.0 W/m2 CLR
22:16 60.9 °F 49.9 °F 29.79 in Calm   4.6 mph 67 % 0.00 in 0.0 W/m2 CLR
22:21 60.8 °F 49.8 °F 29.79 in SE 0.3 mph 4.6 mph 67 % 0.00 in 0.0 W/m2 CLR
22:26 60.6 °F 49.6 °F 29.79 in SE 0.7 mph 5.8 mph 67 % 0.00 in 0.0 W/m2 CLR
22:31 60.4 °F 49.4 °F 29.79 in ESE 0.3 mph 5.8 mph 67 % 0.00 in 0.0 W/m2 CLR
22:36 60.3 °F 49.7 °F 29.79 in Calm   5.8 mph 68 % 0.00 in 0.0 W/m2 CLR
22:41 60.2 °F 49.6 °F 29.79 in Calm   3.5 mph 68 % 0.00 in 0.0 W/m2 CLR
22:46 60.1 °F 49.5 °F 29.79 in ESE 0.2 mph 3.5 mph 68 % 0.00 in 0.0 W/m2 CLR
22:51 60.0 °F 49.8 °F 29.79 in SE 0.8 mph 3.5 mph 69 % 0.00 in 0.0 W/m2 CLR
22:56 59.9 °F 49.7 °F 29.78 in Calm   3.5 mph 69 % 0.00 in 0.0 W/m2 CLR
23:01 59.7 °F 49.9 °F 29.79 in SE 0.1 mph 3.5 mph 70 % 0.00 in 0.0 W/m2 CLR
23:06 59.6 °F 49.8 °F 29.78 in East 0.6 mph 3.5 mph 70 % 0.00 in 0.0 W/m2 CLR
23:11 59.4 °F 49.6 °F 29.78 in ENE 0.3 mph 3.5 mph 70 % 0.00 in 0.0 W/m2 CLR
23:16 59.4 °F 50.0 °F 29.78 in Calm   3.5 mph 71 % 0.00 in 0.0 W/m2 CLR
23:21 59.4 °F 50.4 °F 29.78 in Calm   3.5 mph 72 % 0.00 in 0.0 W/m2 CLR
23:26 59.3 °F 50.3 °F 29.78 in Calm     72 % 0.00 in 0.0 W/m2 CLR
23:31 59.2 °F 50.2 °F 29.78 in NE 0.6 mph 3.5 mph 72 % 0.00 in 0.0 W/m2 CLR
23:36 59.1 °F 50.1 °F 29.78 in East 0.4 mph 3.5 mph 72 % 0.00 in 0.0 W/m2 CLR
23:41 59.0 °F 50.4 °F 29.78 in NE 0.2 mph 3.5 mph 73 % 0.00 in 0.0 W/m2 CLR
23:46 58.9 °F 50.3 °F 29.78 in SE 1.2 mph 3.5 mph 73 % 0.00 in 0.0 W/m2 CLR
23:51 58.8 °F 50.5 °F 29.78 in Calm   4.6 mph 74 % 0.00 in 0.0 W/m2 CLR
23:56 58.8 °F 50.5 °F 29.78 in Calm   4.6 mph 74 % 0.00 in 0.0 W/m2 CLR
Air Products Campus Weather
Compliments of Weather Underground - 3.5 mb